sensor_id;sensor_type;location;lat;lon;timestamp;P1;durP1;ratioP1;P2;durP2;ratioP2
75700;SDS011;64321;48.796;44.740;2023-04-24T00:11:25;77.47;;;43.35;;
75700;SDS011;64321;48.796;44.740;2023-04-24T00:16:50;77.00;;;45.28;;
75700;SDS011;64321;48.796;44.740;2023-04-24T00:22:25;72.60;;;44.47;;
75700;SDS011;64321;48.796;44.740;2023-04-24T00:40:57;62.85;;;39.40;;
75700;SDS011;64321;48.796;44.740;2023-04-24T00:47:03;67.03;;;41.40;;
75700;SDS011;64321;48.796;44.740;2023-04-24T00:52:25;64.57;;;40.67;;
75700;SDS011;64321;48.796;44.740;2023-04-24T00:57:44;66.43;;;36.22;;
75700;SDS011;64321;48.796;44.740;2023-04-24T01:08:57;40.17;;;23.42;;
75700;SDS011;64321;48.796;44.740;2023-04-24T01:14:14;34.65;;;17.70;;
75700;SDS011;64321;48.796;44.740;2023-04-24T01:19:41;39.72;;;20.63;;
75700;SDS011;64321;48.796;44.740;2023-04-24T01:25:32;35.72;;;15.98;;
75700;SDS011;64321;48.796;44.740;2023-04-24T01:31:34;33.63;;;15.93;;
75700;SDS011;64321;48.796;44.740;2023-04-24T01:37:23;29.98;;;16.40;;
75700;SDS011;64321;48.796;44.740;2023-04-24T01:42:58;37.80;;;20.23;;
75700;SDS011;64321;48.796;44.740;2023-04-24T01:48:17;56.67;;;31.05;;
75700;SDS011;64321;48.796;44.740;2023-04-24T01:53:40;52.60;;;32.22;;
75700;SDS011;64321;48.796;44.740;2023-04-24T01:59:13;60.00;;;36.63;;
75700;SDS011;64321;48.796;44.740;2023-04-24T02:04:41;58.40;;;33.25;;
75700;SDS011;64321;48.796;44.740;2023-04-24T02:10:19;59.85;;;29.38;;
75700;SDS011;64321;48.796;44.740;2023-04-24T02:15:40;51.45;;;29.80;;
75700;SDS011;64321;48.796;44.740;2023-04-24T02:21:16;48.53;;;27.63;;
75700;SDS011;64321;48.796;44.740;2023-04-24T02:26:56;43.47;;;25.77;;
75700;SDS011;64321;48.796;44.740;2023-04-24T02:33:16;40.80;;;22.95;;
75700;SDS011;64321;48.796;44.740;2023-04-24T02:39:33;45.45;;;26.98;;
75700;SDS011;64321;48.796;44.740;2023-04-24T02:45:03;41.83;;;23.70;;
75700;SDS011;64321;48.796;44.740;2023-04-24T02:50:26;42.67;;;24.75;;
75700;SDS011;64321;48.796;44.740;2023-04-24T02:56:57;42.75;;;27.20;;
75700;SDS011;64321;48.796;44.740;2023-04-24T03:02:28;47.45;;;25.95;;
75700;SDS011;64321;48.796;44.740;2023-04-24T03:07:56;45.80;;;28.17;;
75700;SDS011;64321;48.796;44.740;2023-04-24T03:13:57;43.47;;;26.17;;
75700;SDS011;64321;48.796;44.740;2023-04-24T03:25:20;28.27;;;15.50;;
75700;SDS011;64321;48.796;44.740;2023-04-24T03:30:52;28.02;;;14.40;;
75700;SDS011;64321;48.796;44.740;2023-04-24T03:36:15;25.58;;;15.23;;
75700;SDS011;64321;48.796;44.740;2023-04-24T03:41:49;23.50;;;14.15;;
75700;SDS011;64321;48.796;44.740;2023-04-24T03:47:37;25.10;;;12.35;;
75700;SDS011;64321;48.796;44.740;2023-04-24T03:53:21;23.50;;;13.07;;
75700;SDS011;64321;48.796;44.740;2023-04-24T04:05:22;24.30;;;13.43;;
75700;SDS011;64321;48.796;44.740;2023-04-24T04:10:51;22.55;;;13.52;;
75700;SDS011;64321;48.796;44.740;2023-04-24T04:16:13;24.63;;;11.60;;
75700;SDS011;64321;48.796;44.740;2023-04-24T04:21:46;19.88;;;11.18;;
75700;SDS011;64321;48.796;44.740;2023-04-24T04:27:30;31.23;;;16.83;;
75700;SDS011;64321;48.796;44.740;2023-04-24T04:39:26;60.88;;;33.85;;
75700;SDS011;64321;48.796;44.740;2023-04-24T04:45:41;49.45;;;30.70;;
75700;SDS011;64321;48.796;44.740;2023-04-24T04:51:13;54.20;;;31.75;;
75700;SDS011;64321;48.796;44.740;2023-04-24T04:56:40;50.85;;;28.38;;
75700;SDS011;64321;48.796;44.740;2023-04-24T05:02:02;43.88;;;23.48;;
75700;SDS011;64321;48.796;44.740;2023-04-24T05:07:31;51.85;;;27.70;;
75700;SDS011;64321;48.796;44.740;2023-04-24T05:13:17;76.72;;;38.05;;
75700;SDS011;64321;48.796;44.740;2023-04-24T05:18:50;63.17;;;30.45;;
75700;SDS011;64321;48.796;44.740;2023-04-24T05:24:50;48.92;;;24.13;;
75700;SDS011;64321;48.796;44.740;2023-04-24T05:30:45;49.75;;;20.58;;
75700;SDS011;64321;48.796;44.740;2023-04-24T05:36:07;35.70;;;17.88;;
75700;SDS011;64321;48.796;44.740;2023-04-24T05:41:21;37.70;;;18.55;;
75700;SDS011;64321;48.796;44.740;2023-04-24T05:47:07;24.80;;;10.68;;
75700;SDS011;64321;48.796;44.740;2023-04-24T05:53:10;27.98;;;10.77;;
75700;SDS011;64321;48.796;44.740;2023-04-24T05:59:12;19.58;;;8.43;;
75700;SDS011;64321;48.796;44.740;2023-04-24T06:05:10;22.08;;;9.07;;
75700;SDS011;64321;48.796;44.740;2023-04-24T06:22:00;19.45;;;8.70;;
75700;SDS011;64321;48.796;44.740;2023-04-24T06:27:17;13.77;;;8.70;;
75700;SDS011;64321;48.796;44.740;2023-04-24T06:44:49;7.43;;;4.32;;
75700;SDS011;64321;48.796;44.740;2023-04-24T06:50:25;7.82;;;4.43;;
75700;SDS011;64321;48.796;44.740;2023-04-24T06:55:46;3.22;;;1.48;;
75700;SDS011;64321;48.796;44.740;2023-04-24T07:01:13;7.07;;;2.28;;
75700;SDS011;64321;48.796;44.740;2023-04-24T07:06:54;2.92;;;0.82;;
75700;SDS011;64321;48.796;44.740;2023-04-24T07:12:23;2.78;;;2.15;;
75700;SDS011;64321;48.796;44.740;2023-04-24T07:18:00;1.73;;;1.08;;
75700;SDS011;64321;48.796;44.740;2023-04-24T07:24:05;3.55;;;2.30;;
75700;SDS011;64321;48.796;44.740;2023-04-24T07:29:31;5.82;;;2.47;;
75700;SDS011;64321;48.796;44.740;2023-04-24T07:35:04;4.05;;;1.48;;
75700;SDS011;64321;48.796;44.740;2023-04-24T07:40:46;4.55;;;2.25;;
75700;SDS011;64321;48.796;44.740;2023-04-24T07:46:29;5.70;;;2.10;;
75700;SDS011;64321;48.796;44.740;2023-04-24T07:52:14;8.88;;;2.28;;
75700;SDS011;64321;48.796;44.740;2023-04-24T07:57:34;3.75;;;1.50;;
75700;SDS011;64321;48.796;44.740;2023-04-24T08:03:30;3.30;;;1.40;;
75700;SDS011;64321;48.796;44.740;2023-04-24T08:08:49;5.30;;;1.17;;
75700;SDS011;64321;48.796;44.740;2023-04-24T08:21:06;4.93;;;2.47;;
75700;SDS011;64321;48.796;44.740;2023-04-24T08:26:39;7.03;;;2.50;;
75700;SDS011;64321;48.796;44.740;2023-04-24T08:32:19;5.50;;;2.20;;
75700;SDS011;64321;48.796;44.740;2023-04-24T08:38:03;3.92;;;2.95;;
75700;SDS011;64321;48.796;44.740;2023-04-24T08:43:36;3.50;;;1.13;;
75700;SDS011;64321;48.796;44.740;2023-04-24T08:49:38;3.65;;;1.98;;
75700;SDS011;64321;48.796;44.740;2023-04-24T08:55:19;4.47;;;2.53;;
75700;SDS011;64321;48.796;44.740;2023-04-24T09:01:01;5.80;;;2.67;;
75700;SDS011;64321;48.796;44.740;2023-04-24T09:06:46;4.65;;;1.80;;
75700;SDS011;64321;48.796;44.740;2023-04-24T09:12:25;4.53;;;1.15;;
75700;SDS011;64321;48.796;44.740;2023-04-24T09:17:47;3.35;;;1.65;;
75700;SDS011;64321;48.796;44.740;2023-04-24T09:29:18;3.22;;;1.45;;
75700;SDS011;64321;48.796;44.740;2023-04-24T09:35:19;3.83;;;1.83;;
75700;SDS011;64321;48.796;44.740;2023-04-24T09:40:44;5.30;;;2.35;;
75700;SDS011;64321;48.796;44.740;2023-04-24T09:46:08;3.50;;;1.33;;
75700;SDS011;64321;48.796;44.740;2023-04-24T09:51:36;2.30;;;1.48;;
75700;SDS011;64321;48.796;44.740;2023-04-24T10:04:05;3.30;;;1.45;;
75700;SDS011;64321;48.796;44.740;2023-04-24T10:09:47;6.55;;;1.35;;
75700;SDS011;64321;48.796;44.740;2023-04-24T10:15:30;2.42;;;1.17;;
75700;SDS011;64321;48.796;44.740;2023-04-24T10:21:07;4.35;;;1.80;;
75700;SDS011;64321;48.796;44.740;2023-04-24T10:26:46;3.30;;;1.13;;
75700;SDS011;64321;48.796;44.740;2023-04-24T10:32:15;3.25;;;1.17;;
75700;SDS011;64321;48.796;44.740;2023-04-24T10:37:41;4.88;;;1.73;;
75700;SDS011;64321;48.796;44.740;2023-04-24T10:42:48;2.53;;;1.05;;
75700;SDS011;64321;48.796;44.740;2023-04-24T10:47:56;2.80;;;1.63;;
75700;SDS011;64321;48.796;44.740;2023-04-24T10:53:11;4.25;;;1.58;;
75700;SDS011;64321;48.796;44.740;2023-04-24T10:58:14;3.80;;;1.58;;
75700;SDS011;64321;48.796;44.740;2023-04-24T11:03:23;3.75;;;1.45;;
75700;SDS011;64321;48.796;44.740;2023-04-24T11:08:28;4.28;;;1.40;;
75700;SDS011;64321;48.796;44.740;2023-04-24T11:24:23;7.15;;;2.05;;
75700;SDS011;64321;48.796;44.740;2023-04-24T11:34:49;8.98;;;2.95;;
75700;SDS011;64321;48.796;44.740;2023-04-24T11:39:54;8.63;;;2.40;;
75700;SDS011;64321;48.796;44.740;2023-04-24T11:50:06;11.45;;;2.88;;
75700;SDS011;64321;48.796;44.740;2023-04-24T12:00:24;5.60;;;1.88;;
75700;SDS011;64321;48.796;44.740;2023-04-24T12:05:30;6.97;;;2.80;;
75700;SDS011;64321;48.796;44.740;2023-04-24T12:10:36;4.28;;;1.38;;
75700;SDS011;64321;48.796;44.740;2023-04-24T12:15:40;6.18;;;1.50;;
75700;SDS011;64321;48.796;44.740;2023-04-24T12:20:44;7.43;;;1.52;;
75700;SDS011;64321;48.796;44.740;2023-04-24T12:25:48;5.75;;;1.40;;
75700;SDS011;64321;48.796;44.740;2023-04-24T12:30:53;8.93;;;1.90;;
75700;SDS011;64321;48.796;44.740;2023-04-24T12:35:56;7.95;;;1.92;;
75700;SDS011;64321;48.796;44.740;2023-04-24T12:41:04;8.13;;;3.08;;
75700;SDS011;64321;48.796;44.740;2023-04-24T12:46:12;8.55;;;3.60;;
75700;SDS011;64321;48.796;44.740;2023-04-24T12:51:18;12.25;;;3.58;;
75700;SDS011;64321;48.796;44.740;2023-04-24T12:56:24;11.25;;;5.15;;
75700;SDS011;64321;48.796;44.740;2023-04-24T13:01:30;19.27;;;6.05;;
75700;SDS011;64321;48.796;44.740;2023-04-24T13:06:41;8.30;;;2.75;;
75700;SDS011;64321;48.796;44.740;2023-04-24T13:11:44;16.42;;;7.10;;
75700;SDS011;64321;48.796;44.740;2023-04-24T13:16:48;7.50;;;2.85;;
75700;SDS011;64321;48.796;44.740;2023-04-24T13:21:56;5.97;;;1.58;;
75700;SDS011;64321;48.796;44.740;2023-04-24T13:27:00;4.68;;;1.42;;
75700;SDS011;64321;48.796;44.740;2023-04-24T13:32:05;3.53;;;1.55;;
75700;SDS011;64321;48.796;44.740;2023-04-24T13:37:11;6.75;;;1.60;;
75700;SDS011;64321;48.796;44.740;2023-04-24T13:42:18;4.20;;;2.38;;
75700;SDS011;64321;48.796;44.740;2023-04-24T13:47:24;6.75;;;2.28;;
75700;SDS011;64321;48.796;44.740;2023-04-24T13:52:33;7.30;;;1.92;;
75700;SDS011;64321;48.796;44.740;2023-04-24T13:57:39;5.88;;;2.38;;
75700;SDS011;64321;48.796;44.740;2023-04-24T14:07:53;6.45;;;2.13;;
75700;SDS011;64321;48.796;44.740;2023-04-24T14:13:00;3.65;;;1.40;;
75700;SDS011;64321;48.796;44.740;2023-04-24T14:18:07;5.95;;;1.52;;
75700;SDS011;64321;48.796;44.740;2023-04-24T14:23:15;5.53;;;1.50;;
75700;SDS011;64321;48.796;44.740;2023-04-24T14:28:21;5.15;;;1.83;;
75700;SDS011;64321;48.796;44.740;2023-04-24T14:33:24;4.13;;;1.73;;
75700;SDS011;64321;48.796;44.740;2023-04-24T14:39:13;3.72;;;1.27;;
75700;SDS011;64321;48.796;44.740;2023-04-24T14:44:46;7.10;;;1.83;;
75700;SDS011;64321;48.796;44.740;2023-04-24T14:50:43;9.13;;;1.15;;
75700;SDS011;64321;48.796;44.740;2023-04-24T14:56:10;4.68;;;1.58;;
75700;SDS011;64321;48.796;44.740;2023-04-24T15:02:03;5.05;;;1.88;;
75700;SDS011;64321;48.796;44.740;2023-04-24T15:07:23;4.10;;;1.17;;
75700;SDS011;64321;48.796;44.740;2023-04-24T15:13:24;7.47;;;1.40;;
75700;SDS011;64321;48.796;44.740;2023-04-24T15:19:04;4.75;;;2.28;;
75700;SDS011;64321;48.796;44.740;2023-04-24T15:24:34;8.13;;;2.47;;
75700;SDS011;64321;48.796;44.740;2023-04-24T15:29:53;5.95;;;2.17;;
75700;SDS011;64321;48.796;44.740;2023-04-24T15:35:36;3.60;;;1.45;;
75700;SDS011;64321;48.796;44.740;2023-04-24T15:40:59;4.60;;;1.65;;
75700;SDS011;64321;48.796;44.740;2023-04-24T15:46:38;6.03;;;1.75;;
75700;SDS011;64321;48.796;44.740;2023-04-24T15:52:10;7.65;;;1.80;;
75700;SDS011;64321;48.796;44.740;2023-04-24T15:58:01;6.18;;;2.70;;
75700;SDS011;64321;48.796;44.740;2023-04-24T16:03:28;7.43;;;2.83;;
75700;SDS011;64321;48.796;44.740;2023-04-24T16:08:46;17.95;;;5.93;;
75700;SDS011;64321;48.796;44.740;2023-04-24T16:20:42;16.48;;;6.70;;
75700;SDS011;64321;48.796;44.740;2023-04-24T16:26:50;6.80;;;2.88;;
75700;SDS011;64321;48.796;44.740;2023-04-24T16:32:25;5.68;;;2.20;;
75700;SDS011;64321;48.796;44.740;2023-04-24T16:37:50;4.13;;;1.85;;
75700;SDS011;64321;48.796;44.740;2023-04-24T16:43:21;3.60;;;1.83;;
75700;SDS011;64321;48.796;44.740;2023-04-24T16:54:21;4.28;;;1.73;;
75700;SDS011;64321;48.796;44.740;2023-04-24T16:59:51;5.07;;;1.75;;
75700;SDS011;64321;48.796;44.740;2023-04-24T17:05:19;4.60;;;1.83;;
75700;SDS011;64321;48.796;44.740;2023-04-24T17:10:42;7.63;;;2.03;;
75700;SDS011;64321;48.796;44.740;2023-04-24T17:16:37;8.55;;;3.15;;
75700;SDS011;64321;48.796;44.740;2023-04-24T17:22:36;7.20;;;3.78;;
75700;SDS011;64321;48.796;44.740;2023-04-24T17:28:00;7.85;;;3.72;;
75700;SDS011;64321;48.796;44.740;2023-04-24T17:33:18;11.85;;;4.57;;
75700;SDS011;64321;48.796;44.740;2023-04-24T17:38:55;9.40;;;3.38;;
75700;SDS011;64321;48.796;44.740;2023-04-24T17:44:16;9.98;;;3.00;;
75700;SDS011;64321;48.796;44.740;2023-04-24T17:49:50;9.07;;;2.92;;
75700;SDS011;64321;48.796;44.740;2023-04-24T17:55:20;6.90;;;3.40;;
75700;SDS011;64321;48.796;44.740;2023-04-24T18:00:35;8.43;;;3.45;;
75700;SDS011;64321;48.796;44.740;2023-04-24T18:06:09;10.10;;;3.55;;
75700;SDS011;64321;48.796;44.740;2023-04-24T18:12:03;9.27;;;4.10;;
75700;SDS011;64321;48.796;44.740;2023-04-24T18:17:57;7.32;;;3.55;;
75700;SDS011;64321;48.796;44.740;2023-04-24T18:23:14;6.40;;;3.05;;
75700;SDS011;64321;48.796;44.740;2023-04-24T18:28:54;9.07;;;2.97;;
75700;SDS011;64321;48.796;44.740;2023-04-24T18:34:36;10.25;;;3.17;;
75700;SDS011;64321;48.796;44.740;2023-04-24T18:45:40;6.45;;;2.67;;
75700;SDS011;64321;48.796;44.740;2023-04-24T18:52:05;7.63;;;2.92;;
75700;SDS011;64321;48.796;44.740;2023-04-24T18:57:28;8.77;;;2.65;;
75700;SDS011;64321;48.796;44.740;2023-04-24T19:02:42;6.15;;;2.80;;
75700;SDS011;64321;48.796;44.740;2023-04-24T19:08:57;9.95;;;2.45;;
75700;SDS011;64321;48.796;44.740;2023-04-24T19:15:14;15.15;;;8.68;;
75700;SDS011;64321;48.796;44.740;2023-04-24T19:20:43;12.23;;;6.55;;
75700;SDS011;64321;48.796;44.740;2023-04-24T19:26:36;8.43;;;4.38;;
75700;SDS011;64321;48.796;44.740;2023-04-24T19:32:18;6.32;;;2.50;;
75700;SDS011;64321;48.796;44.740;2023-04-24T19:37:59;7.22;;;2.22;;
75700;SDS011;64321;48.796;44.740;2023-04-24T19:43:46;13.65;;;7.45;;
75700;SDS011;64321;48.796;44.740;2023-04-24T19:49:27;35.05;;;21.65;;
75700;SDS011;64321;48.796;44.740;2023-04-24T19:54:54;25.85;;;18.63;;
75700;SDS011;64321;48.796;44.740;2023-04-24T20:00:58;17.08;;;7.97;;
75700;SDS011;64321;48.796;44.740;2023-04-24T20:06:38;14.38;;;7.30;;
75700;SDS011;64321;48.796;44.740;2023-04-24T20:12:54;11.40;;;5.25;;
75700;SDS011;64321;48.796;44.740;2023-04-24T20:18:39;10.95;;;5.05;;
75700;SDS011;64321;48.796;44.740;2023-04-24T20:24:54;12.77;;;5.15;;
75700;SDS011;64321;48.796;44.740;2023-04-24T20:36:24;12.02;;;2.47;;
75700;SDS011;64321;48.796;44.740;2023-04-24T20:41:52;7.85;;;1.85;;
75700;SDS011;64321;48.796;44.740;2023-04-24T20:47:18;7.50;;;2.00;;
75700;SDS011;64321;48.796;44.740;2023-04-24T20:53:01;7.80;;;1.73;;
75700;SDS011;64321;48.796;44.740;2023-04-24T20:58:36;7.63;;;1.65;;
75700;SDS011;64321;48.796;44.740;2023-04-24T21:04:38;5.60;;;1.58;;
75700;SDS011;64321;48.796;44.740;2023-04-24T21:10:10;7.95;;;2.63;;
75700;SDS011;64321;48.796;44.740;2023-04-24T21:15:27;7.40;;;1.48;;
75700;SDS011;64321;48.796;44.740;2023-04-24T21:21:00;10.13;;;1.98;;
75700;SDS011;64321;48.796;44.740;2023-04-24T21:26:57;6.95;;;2.55;;
75700;SDS011;64321;48.796;44.740;2023-04-24T21:38:49;9.88;;;2.25;;
75700;SDS011;64321;48.796;44.740;2023-04-24T21:45:18;10.25;;;1.98;;
75700;SDS011;64321;48.796;44.740;2023-04-24T21:50:57;6.93;;;2.65;;
75700;SDS011;64321;48.796;44.740;2023-04-24T21:56:24;9.82;;;3.75;;
75700;SDS011;64321;48.796;44.740;2023-04-24T22:01:50;12.18;;;5.00;;
75700;SDS011;64321;48.796;44.740;2023-04-24T22:07:27;9.32;;;4.43;;
75700;SDS011;64321;48.796;44.740;2023-04-24T22:13:16;10.20;;;3.60;;
75700;SDS011;64321;48.796;44.740;2023-04-24T22:30:23;9.68;;;4.20;;
75700;SDS011;64321;48.796;44.740;2023-04-24T22:35:46;9.18;;;3.88;;
75700;SDS011;64321;48.796;44.740;2023-04-24T22:42:04;9.52;;;2.63;;
75700;SDS011;64321;48.796;44.740;2023-04-24T22:47:38;4.95;;;1.85;;
75700;SDS011;64321;48.796;44.740;2023-04-24T22:53:15;5.38;;;2.08;;
75700;SDS011;64321;48.796;44.740;2023-04-24T22:58:57;4.50;;;1.92;;
75700;SDS011;64321;48.796;44.740;2023-04-24T23:04:42;5.65;;;1.75;;
75700;SDS011;64321;48.796;44.740;2023-04-24T23:10:12;5.32;;;1.55;;
75700;SDS011;64321;48.796;44.740;2023-04-24T23:15:51;3.95;;;2.00;;
75700;SDS011;64321;48.796;44.740;2023-04-24T23:21:24;3.97;;;1.67;;
75700;SDS011;64321;48.796;44.740;2023-04-24T23:27:42;3.78;;;1.77;;
75700;SDS011;64321;48.796;44.740;2023-04-24T23:39:27;4.07;;;2.42;;
75700;SDS011;64321;48.796;44.740;2023-04-24T23:45:06;4.10;;;2.28;;
75700;SDS011;64321;48.796;44.740;2023-04-24T23:50:33;5.90;;;2.65;;
75700;SDS011;64321;48.796;44.740;2023-04-24T23:56:45;4.68;;;2.50;;
